createdAt,value
2022-12-01T00:00:36.285Z,6.60
2022-12-01T00:05:39.971Z,6.50
2022-12-01T00:10:43.550Z,6.50
2022-12-01T00:15:49.269Z,6.50
2022-12-01T00:20:57.267Z,6.60
2022-12-01T00:26:05.848Z,6.60
2022-12-01T00:31:27.817Z,6.50
2022-12-01T00:36:31.570Z,6.50
2022-12-01T00:41:34.794Z,6.50
2022-12-01T00:46:41.466Z,6.60
2022-12-01T00:51:46.870Z,6.70
2022-12-01T00:56:51.256Z,6.60
2022-12-01T01:01:56.254Z,6.80
2022-12-01T01:07:00.503Z,6.70
2022-12-01T01:12:03.745Z,7.30
2022-12-01T01:17:09.438Z,7.20
2022-12-01T01:22:13.080Z,7.30
2022-12-01T01:27:17.739Z,7.00
2022-12-01T01:32:23.737Z,6.80
2022-12-01T01:37:28.460Z,6.80
2022-12-01T01:42:32.606Z,6.70
2022-12-01T01:47:38.367Z,6.80
2022-12-01T01:52:44.023Z,6.50
2022-12-01T01:57:47.936Z,6.50
2022-12-01T02:02:53.004Z,6.50
2022-12-01T02:07:57.532Z,6.50
2022-12-01T02:13:10.071Z,6.60
2022-12-01T02:18:25.441Z,6.50
2022-12-01T02:23:55.368Z,6.60
2022-12-01T02:29:20.838Z,6.80
2022-12-01T02:34:29.956Z,6.90
2022-12-01T02:39:34.788Z,6.90
2022-12-01T02:44:40.343Z,6.90
2022-12-01T02:49:52.797Z,6.90
2022-12-01T02:54:56.521Z,6.80
2022-12-01T03:00:00.458Z,6.90
2022-12-01T03:05:06.491Z,7.00
2022-12-01T03:10:14.614Z,6.90
2022-12-01T03:15:23.518Z,6.90
2022-12-01T03:20:32.331Z,7.00
2022-12-01T03:25:36.070Z,7.00
2022-12-01T03:30:39.927Z,7.00
2022-12-01T03:35:45.592Z,7.00
2022-12-01T03:40:49.285Z,6.90
2022-12-01T03:45:56.408Z,6.90
2022-12-01T03:51:06.703Z,6.80
2022-12-01T03:56:09.958Z,6.70
2022-12-01T04:01:14.176Z,6.70
2022-12-01T04:06:18.915Z,6.80
2022-12-01T04:11:40.061Z,6.80
2022-12-01T04:16:43.948Z,6.90
2022-12-01T04:21:50.514Z,6.90
2022-12-01T04:26:56.458Z,6.80
2022-12-01T04:31:59.937Z,6.80
2022-12-01T04:37:05.709Z,6.80
2022-12-01T04:42:08.946Z,6.80
2022-12-01T04:47:13.364Z,6.80
2022-12-01T04:52:21.838Z,6.90
2022-12-01T04:57:26.931Z,7.00
2022-12-01T05:02:31.420Z,6.80
2022-12-01T05:07:36.647Z,6.80
2022-12-01T05:12:41.257Z,6.90
2022-12-01T05:17:44.795Z,6.90
2022-12-01T05:23:06.254Z,6.80
2022-12-01T05:28:10.133Z,6.80
2022-12-01T05:33:13.591Z,6.80
2022-12-01T05:38:20.335Z,6.80
2022-12-01T05:43:28.939Z,6.90
2022-12-01T05:48:35.432Z,6.90
2022-12-01T05:53:40.510Z,6.70
2022-12-01T05:58:44.446Z,6.70
2022-12-01T06:03:49.455Z,6.70
2022-12-01T06:08:54.578Z,6.70
2022-12-01T06:13:58.279Z,6.60
2022-12-01T06:19:02.511Z,6.60
2022-12-01T06:24:08.447Z,6.70
2022-12-01T06:29:12.357Z,7.00
2022-12-01T06:34:16.618Z,7.20
2022-12-01T06:39:23.062Z,7.00
2022-12-01T06:44:26.590Z,7.00
2022-12-01T06:49:30.022Z,7.00
2022-12-01T06:54:37.062Z,6.80
2022-12-01T06:59:40.385Z,6.70
2022-12-01T07:04:45.980Z,6.70
2022-12-01T07:09:51.270Z,6.70
2022-12-01T07:14:54.781Z,6.80
2022-12-01T07:19:58.262Z,6.70
2022-12-01T07:25:03.033Z,6.70
2022-12-01T07:30:08.232Z,6.60
2022-12-01T07:35:11.536Z,6.50
2022-12-01T07:40:16.510Z,6.60
2022-12-01T07:45:20.504Z,6.60
2022-12-01T07:50:23.863Z,6.50
2022-12-01T07:55:29.303Z,6.60
2022-12-01T08:00:32.607Z,6.60
2022-12-01T08:05:37.224Z,6.60
2022-12-01T08:10:43.210Z,6.70
2022-12-01T08:15:46.719Z,6.60
2022-12-01T08:20:50.014Z,6.70
2022-12-01T08:25:55.042Z,6.80
2022-12-01T08:30:59.341Z,6.80
2022-12-01T08:36:03.179Z,6.80
2022-12-01T08:41:08.562Z,6.80
2022-12-01T08:46:12.345Z,6.90
2022-12-01T08:51:18.430Z,6.80
2022-12-01T08:56:26.291Z,7.00
2022-12-01T09:01:30.429Z,7.00
2022-12-01T09:06:34.878Z,7.20
2022-12-01T09:11:39.929Z,7.10
2022-12-01T09:16:44.125Z,7.30
2022-12-01T09:21:47.850Z,7.50
2022-12-01T09:26:56.285Z,7.70
2022-12-01T09:32:00.521Z,7.70
2022-12-01T09:37:03.997Z,7.40
2022-12-01T09:42:09.625Z,7.20
2022-12-01T09:47:19.391Z,7.30
2022-12-01T09:52:25.719Z,7.20
2022-12-01T09:57:33.581Z,7.30
2022-12-01T10:02:41.132Z,7.40
2022-12-01T10:07:46.889Z,7.40
2022-12-01T10:12:51.916Z,7.30
2022-12-01T10:18:03.336Z,7.30
2022-12-01T10:23:14.413Z,7.20
2022-12-01T10:28:58.502Z,7.20
2022-12-01T10:34:03.889Z,7.20
2022-12-01T10:39:08.837Z,7.10
2022-12-01T10:44:14.051Z,7.20
2022-12-01T10:49:18.613Z,7.10
2022-12-01T10:54:22.927Z,7.10
2022-12-01T10:59:31.886Z,7.20
2022-12-01T11:04:43.217Z,7.20
2022-12-01T11:09:49.043Z,7.20
2022-12-01T11:14:55.443Z,7.20
2022-12-01T11:19:59.185Z,7.30
2022-12-01T11:25:04.442Z,7.10
2022-12-01T11:30:24.787Z,7.10
2022-12-01T11:35:30.273Z,7.10
2022-12-01T11:40:37.701Z,7.10
2022-12-01T11:45:42.959Z,7.00
2022-12-01T11:51:00.409Z,7.00
2022-12-01T11:56:19.716Z,6.80
2022-12-01T12:01:39.146Z,6.80
2022-12-01T12:06:45.466Z,6.70
2022-12-01T12:11:54.479Z,6.70
2022-12-01T12:17:23.656Z,6.60
2022-12-01T12:22:33.553Z,6.60
2022-12-01T12:27:41.171Z,6.70
2022-12-01T12:33:01.480Z,6.80
2022-12-01T12:38:09.232Z,6.50
2022-12-01T12:43:25.006Z,6.50
2022-12-01T12:49:03.434Z,6.50
2022-12-01T12:54:13.653Z,6.50
2022-12-01T12:59:19.531Z,6.60
2022-12-01T13:04:27.525Z,6.50
2022-12-01T13:09:40.462Z,6.50
2022-12-01T13:14:45.312Z,6.50
2022-12-01T13:19:50.212Z,6.50
2022-12-01T13:24:53.522Z,6.60
2022-12-01T13:29:57.386Z,6.40
2022-12-01T13:35:07.375Z,6.50
2022-12-01T13:40:16.371Z,6.60
2022-12-01T13:45:20.453Z,6.60
2022-12-01T13:51:00.298Z,6.60
2022-12-01T13:56:25.965Z,6.60
2022-12-01T14:01:48.865Z,6.70
2022-12-01T14:07:21.773Z,6.60
2022-12-01T14:12:29.117Z,6.70
2022-12-01T14:17:35.050Z,6.70
2022-12-01T14:22:42.020Z,6.60
2022-12-01T14:27:46.186Z,6.90
2022-12-01T14:32:49.272Z,6.80
2022-12-01T14:37:53.770Z,6.70
2022-12-01T14:43:15.603Z,6.50
2022-12-01T14:48:20.623Z,6.30
2022-12-01T14:53:27.139Z,6.50
2022-12-01T14:58:31.753Z,6.30
2022-12-01T15:03:38.948Z,6.30
2022-12-01T15:08:58.185Z,6.20
2022-12-01T15:14:25.630Z,6.20
2022-12-01T15:19:33.829Z,6.20
2022-12-01T15:24:38.471Z,6.30
2022-12-01T15:29:45.250Z,6.20
2022-12-01T15:34:50.435Z,6.10
2022-12-01T15:40:43.109Z,6.10
2022-12-01T15:45:25.188Z,6.20
2022-12-01T15:50:32.158Z,6.20
2022-12-01T15:55:38.371Z,6.20
2022-12-01T16:00:42.332Z,6.20
2022-12-01T16:05:45.896Z,6.10
2022-12-01T16:11:14.727Z,6.10
2022-12-01T16:16:37.553Z,6.10
2022-12-01T16:21:46.502Z,6.00
2022-12-01T16:26:53.396Z,6.10
2022-12-01T16:32:19.406Z,6.10
2022-12-01T16:37:25.109Z,6.10
2022-12-01T16:42:30.942Z,6.10
2022-12-01T16:47:34.484Z,6.10
2022-12-01T16:52:45.887Z,6.10
2022-12-01T16:57:55.378Z,6.30
2022-12-01T17:03:02.100Z,6.20
2022-12-01T17:08:06.455Z,6.10
2022-12-01T17:13:23.490Z,6.20
2022-12-01T17:18:31.105Z,6.10
2022-12-01T17:23:34.898Z,6.20
2022-12-01T17:28:39.924Z,6.10
2022-12-01T17:33:44.719Z,6.20
2022-12-01T17:38:49.718Z,6.30
2022-12-01T17:43:54.514Z,6.30
2022-12-01T17:48:57.984Z,6.30
2022-12-01T17:54:02.324Z,6.40
2022-12-01T17:59:07.366Z,6.50
2022-12-01T18:04:10.681Z,6.50
2022-12-01T18:09:15.723Z,6.40
2022-12-01T18:14:21.536Z,6.30
2022-12-01T18:19:26.135Z,6.20
2022-12-01T18:24:30.483Z,6.20
2022-12-01T18:29:35.723Z,6.20
2022-12-01T18:34:39.075Z,6.00
2022-12-01T18:39:42.749Z,6.10
2022-12-01T18:44:49.270Z,6.00
2022-12-01T18:49:53.046Z,6.00
2022-12-01T18:54:58.741Z,6.00
2022-12-01T19:00:08.581Z,5.90
2022-12-01T19:05:11.682Z,6.00
2022-12-01T19:10:15.362Z,5.80
2022-12-01T19:15:20.222Z,6.00
2022-12-01T19:20:25.994Z,6.00
2022-12-01T19:25:29.469Z,5.90
2022-12-01T19:30:38.038Z,5.80
2022-12-01T19:35:41.403Z,5.80
2022-12-01T19:40:47.057Z,5.90
2022-12-01T19:45:52.046Z,6.00
2022-12-01T19:50:57.830Z,5.70
2022-12-01T19:56:03.165Z,5.90
2022-12-01T20:01:08.720Z,5.70
2022-12-01T20:06:13.162Z,5.70
2022-12-01T20:11:19.927Z,5.50
2022-12-01T20:16:25.637Z,5.60
2022-12-01T20:21:30.506Z,5.60
2022-12-01T20:26:35.432Z,5.50
2022-12-01T20:31:40.440Z,5.40
2022-12-01T20:36:44.031Z,5.40
2022-12-01T20:41:48.419Z,5.50
2022-12-01T20:46:53.445Z,5.50
2022-12-01T20:51:57.449Z,5.50
2022-12-01T20:57:00.914Z,5.30
2022-12-01T21:02:06.387Z,5.30
2022-12-01T21:07:11.484Z,5.40
2022-12-01T21:12:33.877Z,5.40
2022-12-01T21:17:41.158Z,5.30
2022-12-01T21:22:45.003Z,5.40
2022-12-01T21:27:48.511Z,5.40
2022-12-01T21:32:53.394Z,5.30
2022-12-01T21:38:00.045Z,5.20
2022-12-01T21:43:26.855Z,5.30
2022-12-01T21:48:34.403Z,5.30
2022-12-01T21:53:38.681Z,5.40
2022-12-01T21:58:42.279Z,5.30
2022-12-01T22:03:48.928Z,5.40
2022-12-01T22:08:53.329Z,5.40
2022-12-01T22:14:03.052Z,5.50
2022-12-01T22:19:32.448Z,5.60
2022-12-01T22:24:39.356Z,6.00
2022-12-01T22:29:45.263Z,5.70
2022-12-01T22:34:54.316Z,5.60
2022-12-01T22:40:38.890Z,5.60
2022-12-01T22:45:43.877Z,5.50
2022-12-01T22:50:52.025Z,6.30
2022-12-01T22:56:01.986Z,5.60
2022-12-01T23:01:10.244Z,5.50
2022-12-01T23:06:45.368Z,5.80
2022-12-01T23:11:55.108Z,5.60
2022-12-01T23:17:07.679Z,5.50
2022-12-01T23:22:11.567Z,6.50
2022-12-01T23:27:16.534Z,6.90
2022-12-01T23:32:19.820Z,5.60
2022-12-01T23:37:45.467Z,5.60
2022-12-01T23:42:53.043Z,6.00
2022-12-01T23:47:57.130Z,5.50
2022-12-01T23:53:00.855Z,5.50
2022-12-01T23:58:10.449Z,5.50
